Bedford, Kentucky
Current Conditions -  °F | °C
As of 11:33 PM on Thursday 18 Dec 2014 (Local Time) from KIMS Reporting Station
Clear Clear  
Wind Chill: 27°   Ceiling: Unl
Heat Index: 27°   Visibility: 5mi
Dew Point: 23°   Wind: 0mph
Humidity: 86%   Direction: NA
Pressure: 30.27"   Gusts: NA
Location:  38.59°N, 85.32°W
Report Text: KIMS 190433Z AUTO 00000KT 5SM CLR M03/M05 A3027 RMK AO1
Loading
Personal Weather Stations






























Interactive Weather Map New forecast layout! Learn more

10-Day Weather Forecast

Advertisements
Track Severe Weather on mobile